createdAt,value
2018-10-11T00:00:25.016Z,15.20
2018-10-11T00:02:53.134Z,15.10
2018-10-11T00:05:21.219Z,15.10
2018-10-11T00:07:49.275Z,15.00
2018-10-11T00:10:17.369Z,15.00
2018-10-11T00:12:45.418Z,15.00
2018-10-11T00:15:13.489Z,15.00
2018-10-11T00:17:41.553Z,14.90
2018-10-11T00:20:09.690Z,14.90
2018-10-11T00:22:37.729Z,14.90
2018-10-11T00:25:05.809Z,14.90
2018-10-11T00:27:33.867Z,14.80
2018-10-11T00:30:01.957Z,14.80
2018-10-11T00:32:30.037Z,14.70
2018-10-11T00:34:58.103Z,14.80
2018-10-11T00:37:26.174Z,14.70
2018-10-11T00:39:54.227Z,14.60
2018-10-11T00:42:22.332Z,14.60
2018-10-11T00:44:50.431Z,14.60
2018-10-11T00:47:18.506Z,14.50
2018-10-11T00:49:46.580Z,14.50
2018-10-11T00:52:14.667Z,14.50
2018-10-11T00:54:42.740Z,14.50
2018-10-11T00:57:10.812Z,14.40
2018-10-11T00:59:38.866Z,14.40
2018-10-11T01:02:06.978Z,14.40
2018-10-11T01:04:35.037Z,14.40
2018-10-11T01:07:03.098Z,14.40
2018-10-11T01:09:31.356Z,14.40
2018-10-11T01:11:59.270Z,14.30
2018-10-11T01:14:27.351Z,14.30
2018-10-11T01:16:55.460Z,14.30
2018-10-11T01:19:23.535Z,14.30
2018-10-11T01:21:51.584Z,14.20
2018-10-11T01:24:19.631Z,14.20
2018-10-11T01:26:47.739Z,14.20
2018-10-11T01:29:15.835Z,14.10
2018-10-11T01:31:44.008Z,14.10
2018-10-11T01:34:12.120Z,14.00
2018-10-11T01:36:40.354Z,14.00
2018-10-11T01:39:08.442Z,14.00
2018-10-11T01:41:36.525Z,14.00
2018-10-11T01:44:04.596Z,14.00
2018-10-11T01:46:32.683Z,14.00
2018-10-11T01:49:00.756Z,14.00
2018-10-11T01:51:28.842Z,14.00
2018-10-11T01:53:56.928Z,13.90
2018-10-11T01:56:25.000Z,13.80
2018-10-11T01:58:53.059Z,13.60
2018-10-11T02:01:21.199Z,13.50
2018-10-11T02:03:49.281Z,13.40
2018-10-11T02:06:17.353Z,13.40
2018-10-11T02:08:45.420Z,13.50
2018-10-11T02:11:13.529Z,13.50
2018-10-11T02:13:41.601Z,13.50
2018-10-11T02:16:09.830Z,13.50
2018-10-11T02:18:37.907Z,13.50
2018-10-11T02:21:06.415Z,13.50
2018-10-11T02:23:34.864Z,13.40
2018-10-11T02:26:02.962Z,13.40
2018-10-11T02:28:31.109Z,13.30
2018-10-11T02:30:59.211Z,13.40
2018-10-11T02:33:27.302Z,13.40
2018-10-11T02:35:55.750Z,13.40
2018-10-11T02:38:23.876Z,13.40
2018-10-11T02:40:51.941Z,13.40
2018-10-11T02:43:20.010Z,13.40
2018-10-11T02:45:48.115Z,13.50
2018-10-11T02:48:16.191Z,13.40
2018-10-11T02:50:44.325Z,13.40
2018-10-11T02:53:12.506Z,13.40
2018-10-11T02:55:40.895Z,13.40
2018-10-11T02:58:20.565Z,13.40
2018-10-11T03:00:48.653Z,13.30
2018-10-11T03:03:19.638Z,13.30
2018-10-11T03:05:47.711Z,13.30
2018-10-11T03:08:16.184Z,13.20
2018-10-11T03:10:44.443Z,13.20
2018-10-11T03:13:13.743Z,13.10
2018-10-11T03:15:42.721Z,13.10
2018-10-11T03:18:11.423Z,13.10
2018-10-11T03:20:40.411Z,13.10
2018-10-11T03:23:09.044Z,13.10
2018-10-11T03:25:37.113Z,13.20
2018-10-11T03:28:05.224Z,13.20
2018-10-11T03:30:33.301Z,13.30
2018-10-11T03:33:01.425Z,13.30
2018-10-11T03:35:29.507Z,13.30
2018-10-11T03:37:57.992Z,13.20
2018-10-11T03:40:26.528Z,13.20
2018-10-11T03:42:54.821Z,13.20
2018-10-11T03:45:22.857Z,13.20
2018-10-11T03:47:51.015Z,13.20
2018-10-11T03:50:19.092Z,13.20
2018-10-11T03:52:47.225Z,13.20
2018-10-11T03:55:15.281Z,13.20
2018-10-11T03:57:43.399Z,13.20
2018-10-11T04:00:11.464Z,13.20
2018-10-11T04:02:39.698Z,13.20
2018-10-11T04:05:07.806Z,13.20
2018-10-11T04:07:35.970Z,13.20
2018-10-11T04:10:04.017Z,13.20
2018-10-11T04:12:32.105Z,13.20
2018-10-11T04:15:00.231Z,13.20
2018-10-11T04:17:28.451Z,13.20
2018-10-11T04:19:56.869Z,13.10
2018-10-11T04:22:25.036Z,13.20
2018-10-11T04:24:53.118Z,13.10
2018-10-11T04:27:21.272Z,13.10
2018-10-11T04:29:49.373Z,13.10
2018-10-11T04:32:17.458Z,13.00
2018-10-11T04:34:45.571Z,13.00
2018-10-11T04:37:13.704Z,13.10
2018-10-11T04:39:41.923Z,13.00
2018-10-11T04:42:10.602Z,13.00
2018-10-11T04:44:38.711Z,13.00
2018-10-11T04:47:07.465Z,13.00
2018-10-11T04:49:35.852Z,13.00
2018-10-11T04:52:04.003Z,13.10
2018-10-11T04:54:32.103Z,13.10
2018-10-11T04:57:00.192Z,13.10
2018-10-11T04:59:28.271Z,13.10
2018-10-11T05:01:56.360Z,13.10
2018-10-11T05:04:24.475Z,13.10
2018-10-11T05:06:52.548Z,13.10
2018-10-11T05:09:20.813Z,13.10
2018-10-11T05:11:48.897Z,13.10
2018-10-11T05:14:16.970Z,13.10
2018-10-11T05:16:45.089Z,13.00
2018-10-11T05:19:13.198Z,13.00
2018-10-11T05:21:41.412Z,13.10
2018-10-11T05:24:09.498Z,13.10
2018-10-11T05:26:37.578Z,13.10
2018-10-11T05:29:05.677Z,13.00
2018-10-11T05:31:33.828Z,13.00
2018-10-11T05:34:01.931Z,13.10
2018-10-11T05:36:30.206Z,13.10
2018-10-11T05:38:58.427Z,13.20
2018-10-11T05:41:26.628Z,13.30
2018-10-11T05:43:54.715Z,13.30
2018-10-11T05:46:31.473Z,13.40
2018-10-11T05:49:00.197Z,13.40
2018-10-11T05:51:29.118Z,13.40
2018-10-11T05:53:57.751Z,13.40
2018-10-11T05:56:28.471Z,13.40
2018-10-11T05:58:56.797Z,13.40
2018-10-11T06:01:25.262Z,13.50
2018-10-11T06:03:53.854Z,13.40
2018-10-11T06:06:21.913Z,13.40
2018-10-11T06:08:50.056Z,13.50
2018-10-11T06:11:18.202Z,13.60
2018-10-11T06:13:47.045Z,13.60
2018-10-11T06:16:15.317Z,13.70
2018-10-11T06:18:44.025Z,13.80
2018-10-11T06:21:12.284Z,13.80
2018-10-11T06:23:40.552Z,13.90
2018-10-11T06:26:08.623Z,14.00
2018-10-11T06:28:36.719Z,14.00
2018-10-11T06:31:04.788Z,14.20
2018-10-11T06:33:32.865Z,14.40
2018-10-11T06:36:00.950Z,14.80
2018-10-11T06:38:29.317Z,15.20
2018-10-11T06:40:58.143Z,15.40
2018-10-11T06:43:26.264Z,15.60
2018-10-11T06:45:54.348Z,15.50
2018-10-11T06:48:22.433Z,15.30
2018-10-11T06:50:50.605Z,15.20
2018-10-11T06:53:18.729Z,15.00
2018-10-11T06:55:46.845Z,14.90
2018-10-11T06:58:14.932Z,14.90
2018-10-11T07:00:43.024Z,14.80
2018-10-11T07:03:11.116Z,14.80
2018-10-11T07:05:39.206Z,14.80
2018-10-11T07:08:07.262Z,14.90
2018-10-11T07:10:35.334Z,14.90
2018-10-11T07:13:03.481Z,14.90
2018-10-11T07:15:31.568Z,14.90
2018-10-11T07:17:59.642Z,14.90
2018-10-11T07:20:27.734Z,15.00
2018-10-11T07:22:55.826Z,15.10
2018-10-11T07:25:23.923Z,15.20
2018-10-11T07:27:52.009Z,15.40
2018-10-11T07:30:20.116Z,15.40
2018-10-11T07:32:48.163Z,15.50
2018-10-11T07:35:16.313Z,15.60
2018-10-11T07:37:44.328Z,15.60
2018-10-11T07:40:12.475Z,15.70
2018-10-11T07:42:40.577Z,15.70
2018-10-11T07:45:08.675Z,15.80
2018-10-11T07:47:36.790Z,15.90
2018-10-11T07:50:05.325Z,15.90
2018-10-11T07:52:33.409Z,16.00
2018-10-11T07:55:01.489Z,16.10
2018-10-11T07:57:29.531Z,16.20
2018-10-11T07:59:57.660Z,16.30
2018-10-11T08:02:25.738Z,16.40
2018-10-11T08:04:53.845Z,16.40
2018-10-11T08:07:21.953Z,16.50
2018-10-11T08:09:50.029Z,16.60
2018-10-11T08:12:18.092Z,16.70
2018-10-11T08:14:46.169Z,16.80
2018-10-11T08:17:14.593Z,16.90
2018-10-11T08:19:42.433Z,17.00
2018-10-11T08:22:10.489Z,17.10
2018-10-11T08:24:38.577Z,17.20
2018-10-11T08:27:06.747Z,17.40
2018-10-11T08:29:34.791Z,17.50
2018-10-11T08:32:02.948Z,17.40
2018-10-11T08:34:31.028Z,17.80
2018-10-11T08:36:59.108Z,17.90
2018-10-11T08:39:27.238Z,18.00
2018-10-11T08:41:55.317Z,18.10
2018-10-11T08:44:23.386Z,18.10
2018-10-11T08:46:51.540Z,18.30
2018-10-11T08:49:19.656Z,18.30
2018-10-11T08:51:47.690Z,18.40
2018-10-11T08:54:50.775Z,18.50
2018-10-11T08:57:19.672Z,18.50
2018-10-11T08:59:47.833Z,18.50
2018-10-11T09:02:15.960Z,18.60
2018-10-11T09:04:44.397Z,18.60
2018-10-11T09:07:12.519Z,18.60
2018-10-11T09:09:40.690Z,18.70
2018-10-11T09:12:08.716Z,18.70
2018-10-11T09:14:43.360Z,18.80
2018-10-11T09:17:11.496Z,18.90
2018-10-11T09:19:39.576Z,18.90
2018-10-11T09:22:07.664Z,18.90
2018-10-11T09:24:35.755Z,19.00
2018-10-11T09:27:03.888Z,19.10
2018-10-11T09:29:32.092Z,19.10
2018-10-11T09:32:00.220Z,19.20
2018-10-11T09:34:28.327Z,19.20
2018-10-11T09:36:56.423Z,19.30
2018-10-11T09:39:24.532Z,19.40
2018-10-11T09:41:52.601Z,19.50
2018-10-11T09:44:20.704Z,19.60
2018-10-11T09:46:48.805Z,19.60
2018-10-11T09:49:16.909Z,19.70
2018-10-11T09:51:44.998Z,19.80
2018-10-11T09:54:13.069Z,19.90
2018-10-11T09:57:50.130Z,20.00
2018-10-11T10:00:23.753Z,20.00
2018-10-11T10:02:52.185Z,20.20
2018-10-11T10:05:20.199Z,20.20
2018-10-11T10:07:48.475Z,20.20
2018-10-11T10:10:16.573Z,20.30
2018-10-11T10:12:44.757Z,20.40
2018-10-11T10:15:12.822Z,20.50
2018-10-11T10:17:40.900Z,20.60
2018-10-11T10:20:08.995Z,20.60
2018-10-11T10:22:37.079Z,20.70
2018-10-11T10:25:05.159Z,20.70
2018-10-11T10:27:33.357Z,20.80
2018-10-11T10:30:05.613Z,20.80
2018-10-11T10:32:33.716Z,20.80
2018-10-11T10:35:01.776Z,20.90
2018-10-11T10:37:29.886Z,20.90
2018-10-11T10:39:58.007Z,21.00
2018-10-11T10:42:26.093Z,21.00
2018-10-11T10:44:54.246Z,21.10
2018-10-11T10:47:22.354Z,21.10
2018-10-11T10:49:57.165Z,21.10
2018-10-11T10:52:25.249Z,21.20
2018-10-11T10:54:53.338Z,21.20
2018-10-11T10:57:21.400Z,21.20
2018-10-11T10:59:49.503Z,21.20
2018-10-11T11:02:17.596Z,21.30
2018-10-11T11:04:45.692Z,21.40
2018-10-11T11:07:13.860Z,21.40
2018-10-11T11:09:41.938Z,21.40
2018-10-11T11:12:10.046Z,21.50
2018-10-11T11:14:38.131Z,21.60
2018-10-11T11:17:06.223Z,21.60
2018-10-11T11:19:34.300Z,21.70
2018-10-11T11:22:02.407Z,21.80
2018-10-11T11:24:30.472Z,21.80
2018-10-11T11:26:58.548Z,21.80
2018-10-11T11:29:26.674Z,21.80
2018-10-11T11:31:54.884Z,21.90
2018-10-11T11:34:22.972Z,21.80
2018-10-11T11:36:51.062Z,21.80
2018-10-11T11:39:19.196Z,21.90
2018-10-11T11:41:47.293Z,21.90
2018-10-11T11:44:15.410Z,22.00
2018-10-11T11:46:43.476Z,22.00
2018-10-11T11:49:11.596Z,22.10
2018-10-11T11:51:39.697Z,22.20
2018-10-11T11:54:13.250Z,22.30
2018-10-11T11:56:41.311Z,22.30
2018-10-11T11:59:09.475Z,22.30
2018-10-11T12:01:37.669Z,22.40
2018-10-11T12:04:05.754Z,22.50
2018-10-11T12:06:33.821Z,22.60
2018-10-11T12:09:01.932Z,22.50
2018-10-11T12:11:30.022Z,22.60
2018-10-11T12:13:58.112Z,22.60
2018-10-11T12:16:26.222Z,22.50
2018-10-11T12:18:55.189Z,22.50
2018-10-11T12:21:23.245Z,22.50
2018-10-11T12:23:51.362Z,22.60
2018-10-11T12:26:19.485Z,22.50
2018-10-11T12:28:47.588Z,22.50
2018-10-11T12:31:15.628Z,22.50
2018-10-11T12:33:43.773Z,22.60
2018-10-11T12:36:11.879Z,22.70
2018-10-11T12:38:40.012Z,22.70
2018-10-11T12:41:08.080Z,22.70
2018-10-11T12:43:36.215Z,22.70
2018-10-11T12:46:04.285Z,22.70
2018-10-11T12:48:32.439Z,22.80
2018-10-11T12:51:00.793Z,22.80
2018-10-11T12:53:28.884Z,22.80
2018-10-11T12:55:56.969Z,22.90
2018-10-11T12:58:25.067Z,22.90
2018-10-11T13:00:53.212Z,22.90
2018-10-11T13:03:21.383Z,22.90
2018-10-11T13:05:49.435Z,22.90
2018-10-11T13:08:17.532Z,23.00
2018-10-11T13:10:45.621Z,23.00
2018-10-11T13:13:13.723Z,23.00
2018-10-11T13:15:42.278Z,23.10
2018-10-11T13:18:09.991Z,23.10
2018-10-11T13:20:38.069Z,23.10
2018-10-11T13:23:09.775Z,23.10
2018-10-11T13:25:34.302Z,23.10
2018-10-11T13:28:02.371Z,23.10
2018-10-11T13:30:30.480Z,23.10
2018-10-11T13:32:58.622Z,23.10
2018-10-11T13:35:26.722Z,23.20
2018-10-11T13:37:54.776Z,23.30
2018-10-11T13:40:22.891Z,23.40
2018-10-11T13:42:50.949Z,23.40
2018-10-11T13:45:19.039Z,23.40
2018-10-11T13:47:47.188Z,23.30
2018-10-11T13:50:15.321Z,23.30
2018-10-11T13:52:43.434Z,23.30
2018-10-11T13:55:14.189Z,23.30
2018-10-11T13:57:39.619Z,23.30
2018-10-11T14:00:08.251Z,23.30
2018-10-11T14:02:36.392Z,23.20
2018-10-11T14:05:04.753Z,23.10
2018-10-11T14:07:32.825Z,23.20
2018-10-11T14:10:02.000Z,23.20
2018-10-11T14:12:30.097Z,23.30
2018-10-11T14:14:58.211Z,23.40
2018-10-11T14:17:26.274Z,23.60
2018-10-11T14:19:54.378Z,23.70
2018-10-11T14:22:22.434Z,23.70
2018-10-11T14:24:50.552Z,23.60
2018-10-11T14:27:18.621Z,23.40
2018-10-11T14:29:46.740Z,23.40
2018-10-11T14:32:14.813Z,23.30
2018-10-11T14:34:42.917Z,23.30
2018-10-11T14:37:11.167Z,23.30
2018-10-11T14:39:39.184Z,23.20
2018-10-11T14:42:07.737Z,23.20
2018-10-11T14:44:35.736Z,23.20
2018-10-11T14:47:03.896Z,23.20
2018-10-11T14:49:31.969Z,23.10
2018-10-11T14:52:00.106Z,23.10
2018-10-11T14:54:30.860Z,23.10
2018-10-11T14:56:59.012Z,23.10
2018-10-11T14:59:27.266Z,23.10
2018-10-11T15:01:55.343Z,23.10
2018-10-11T15:04:23.431Z,23.10
2018-10-11T15:06:51.648Z,23.10
2018-10-11T15:09:19.705Z,23.00
2018-10-11T15:11:47.788Z,22.90
2018-10-11T15:14:15.859Z,22.80
2018-10-11T15:16:43.936Z,22.80
2018-10-11T15:19:11.995Z,22.80
2018-10-11T15:21:40.068Z,22.70
2018-10-11T15:24:08.164Z,22.60
2018-10-11T15:26:36.265Z,22.60
2018-10-11T15:29:04.342Z,22.60
2018-10-11T15:31:32.452Z,22.50
2018-10-11T15:34:00.690Z,22.40
2018-10-11T15:36:28.804Z,22.40
2018-10-11T15:38:56.913Z,22.30
2018-10-11T15:41:25.008Z,22.10
2018-10-11T15:43:53.093Z,22.10
2018-10-11T15:46:21.194Z,22.00
2018-10-11T15:48:49.268Z,22.00
2018-10-11T15:51:17.358Z,22.00
2018-10-11T15:53:45.416Z,22.00
2018-10-11T15:56:13.519Z,21.90
2018-10-11T15:58:41.605Z,21.80
2018-10-11T16:01:10.043Z,21.60
2018-10-11T16:03:38.113Z,21.50
2018-10-11T16:06:06.214Z,21.50
2018-10-11T16:08:34.396Z,21.40
2018-10-11T16:11:02.513Z,21.40
2018-10-11T16:13:30.600Z,21.40
2018-10-11T16:15:58.681Z,21.40
2018-10-11T16:18:26.769Z,21.30
2018-10-11T16:20:54.987Z,21.30
2018-10-11T16:23:23.079Z,21.20
2018-10-11T16:25:51.214Z,21.10
2018-10-11T16:28:19.303Z,21.10
2018-10-11T16:30:47.415Z,21.00
2018-10-11T16:33:15.548Z,21.00
2018-10-11T16:35:43.670Z,21.00
2018-10-11T16:38:11.758Z,20.80
2018-10-11T16:40:40.355Z,20.60
2018-10-11T16:43:08.437Z,20.40
2018-10-11T16:45:36.563Z,20.20
2018-10-11T16:48:04.701Z,20.00
2018-10-11T16:50:33.050Z,19.80
2018-10-11T16:53:01.614Z,19.60
2018-10-11T16:55:29.743Z,19.60
2018-10-11T16:57:57.932Z,19.50
2018-10-11T17:00:26.180Z,19.50
2018-10-11T17:02:54.546Z,19.40
2018-10-11T17:05:22.660Z,19.30
2018-10-11T17:07:50.815Z,19.30
2018-10-11T17:10:20.012Z,19.30
2018-10-11T17:12:48.101Z,19.40
2018-10-11T17:15:16.189Z,19.40
2018-10-11T17:17:44.307Z,19.40
2018-10-11T17:20:12.393Z,19.40
2018-10-11T17:22:40.480Z,19.40
2018-10-11T17:25:08.563Z,19.40
2018-10-11T17:27:36.668Z,19.40
2018-10-11T17:30:04.789Z,19.40
2018-10-11T17:32:32.913Z,19.50
2018-10-11T17:35:01.069Z,19.50
2018-10-11T17:37:32.074Z,19.50
2018-10-11T17:40:00.183Z,19.50
2018-10-11T17:42:28.332Z,19.60
2018-10-11T17:44:56.415Z,19.60
2018-10-11T17:47:26.986Z,19.50
2018-10-11T17:49:55.085Z,19.50
2018-10-11T17:52:23.285Z,19.50
2018-10-11T17:58:27.566Z,19.50
2018-10-11T18:00:55.699Z,19.40
2018-10-11T18:03:23.893Z,19.40
2018-10-11T18:05:52.007Z,19.30
2018-10-11T18:08:20.118Z,19.20
2018-10-11T18:10:48.600Z,19.20
2018-10-11T18:13:16.736Z,19.10
2018-10-11T18:15:44.938Z,19.00
2018-10-11T18:18:13.424Z,19.00
2018-10-11T18:20:41.549Z,19.10
2018-10-11T18:23:09.839Z,19.00
2018-10-11T18:25:37.969Z,18.90
2018-10-11T18:28:06.159Z,18.90
2018-10-11T18:30:34.306Z,18.90
2018-10-11T18:33:02.413Z,18.90
2018-10-11T18:35:30.641Z,18.90
2018-10-11T18:37:58.896Z,18.90
2018-10-11T18:40:27.129Z,18.80
2018-10-11T18:42:55.251Z,18.80
2018-10-11T18:45:23.355Z,18.70
2018-10-11T18:47:51.594Z,18.60
2018-10-11T18:50:19.673Z,18.60
2018-10-11T18:52:47.901Z,18.50
2018-10-11T18:55:16.054Z,18.40
2018-10-11T18:57:44.240Z,18.40
2018-10-11T19:00:12.568Z,18.30
2018-10-11T19:02:40.698Z,18.30
2018-10-11T19:05:08.820Z,18.20
2018-10-11T19:07:36.916Z,18.10
2018-10-11T19:10:05.050Z,18.10
2018-10-11T19:12:33.329Z,18.00
2018-10-11T19:15:01.481Z,18.00
2018-10-11T19:17:29.884Z,18.00
2018-10-11T19:19:57.990Z,18.00
2018-10-11T19:22:26.171Z,17.90
2018-10-11T19:24:54.446Z,17.90
2018-10-11T19:27:22.544Z,17.80
2018-10-11T19:29:50.709Z,17.70
2018-10-11T19:32:18.848Z,17.70
2018-10-11T19:34:46.953Z,17.50
2018-10-11T19:37:15.106Z,17.50
2018-10-11T19:39:43.223Z,17.50
2018-10-11T19:42:11.318Z,17.50
2018-10-11T19:44:39.685Z,17.50
2018-10-11T19:47:07.797Z,17.50
2018-10-11T19:49:35.947Z,17.40
2018-10-11T19:52:04.136Z,17.40
2018-10-11T19:54:32.265Z,17.30
2018-10-11T19:57:00.354Z,17.40
2018-10-11T19:59:28.475Z,17.40
2018-10-11T20:01:56.769Z,17.40
2018-10-11T20:04:24.914Z,17.30
2018-10-11T20:06:52.991Z,17.20
2018-10-11T20:09:21.110Z,17.20
2018-10-11T20:11:49.264Z,17.10
2018-10-11T20:14:17.411Z,17.10
2018-10-11T20:16:45.689Z,17.00
2018-10-11T20:19:13.785Z,16.90
2018-10-11T20:21:41.877Z,16.90
2018-10-11T20:24:10.048Z,16.90
2018-10-11T20:26:38.106Z,16.90
2018-10-11T20:29:06.353Z,16.90
2018-10-11T20:31:34.450Z,16.90
2018-10-11T20:34:02.573Z,17.00
2018-10-11T20:36:30.771Z,17.00
2018-10-11T20:38:58.870Z,16.90
2018-10-11T20:41:27.021Z,16.80
2018-10-11T20:43:55.166Z,16.70
2018-10-11T20:46:23.215Z,16.80
2018-10-11T20:48:51.315Z,16.80
2018-10-11T20:51:19.575Z,16.70
2018-10-11T20:53:47.664Z,16.60
2018-10-11T20:56:15.817Z,16.60
2018-10-11T20:58:43.946Z,16.60
2018-10-11T21:01:12.032Z,16.60
2018-10-11T21:03:40.117Z,16.70
2018-10-11T21:06:08.203Z,16.70
2018-10-11T21:08:36.402Z,16.70
2018-10-11T21:11:04.607Z,16.70
2018-10-11T21:13:32.689Z,16.70
2018-10-11T21:16:00.792Z,16.60
2018-10-11T21:18:28.988Z,16.50
2018-10-11T21:20:57.084Z,16.40
2018-10-11T21:23:25.188Z,16.50
2018-10-11T21:25:53.365Z,16.40
2018-10-11T21:28:21.546Z,16.40
2018-10-11T21:30:49.742Z,16.30
2018-10-11T21:33:18.097Z,16.20
2018-10-11T21:35:46.221Z,16.20
2018-10-11T21:38:14.457Z,16.20
2018-10-11T21:40:42.805Z,16.20
2018-10-11T21:43:11.097Z,16.20
2018-10-11T21:45:39.258Z,16.20
2018-10-11T21:48:07.339Z,16.20
2018-10-11T21:50:35.447Z,16.10
2018-10-11T21:53:03.570Z,16.20
2018-10-11T21:55:32.719Z,16.30
2018-10-11T21:58:00.779Z,16.30
2018-10-11T22:00:34.336Z,16.30
2018-10-11T22:03:02.434Z,16.30
2018-10-11T22:05:30.548Z,16.30
2018-10-11T22:07:58.656Z,16.30
2018-10-11T22:10:26.831Z,16.30
2018-10-11T22:12:55.101Z,16.30
2018-10-11T22:15:23.447Z,16.30
2018-10-11T22:17:51.536Z,16.30
2018-10-11T22:20:19.645Z,16.30
2018-10-11T22:22:47.748Z,16.30
2018-10-11T22:25:15.840Z,16.30
2018-10-11T22:27:43.912Z,16.30
2018-10-11T22:30:12.025Z,16.30
2018-10-11T22:32:40.105Z,16.30
2018-10-11T22:35:08.337Z,16.20
2018-10-11T22:37:36.486Z,16.10
2018-10-11T22:40:04.618Z,16.10
2018-10-11T22:42:32.682Z,16.10
2018-10-11T22:45:00.755Z,16.10
2018-10-11T22:47:28.845Z,16.10
2018-10-11T22:49:56.910Z,16.10
2018-10-11T22:52:25.021Z,16.00
2018-10-11T22:54:53.246Z,16.00
2018-10-11T22:57:21.288Z,15.90
2018-10-11T22:59:49.407Z,15.90
2018-10-11T23:02:17.532Z,15.80
2018-10-11T23:04:45.595Z,15.80
2018-10-11T23:07:13.724Z,15.80
2018-10-11T23:09:41.827Z,15.80
2018-10-11T23:12:09.916Z,15.90
2018-10-11T23:14:38.233Z,15.90
2018-10-11T23:17:06.381Z,15.90
2018-10-11T23:19:34.549Z,15.90
2018-10-11T23:22:02.624Z,16.00
2018-10-11T23:24:30.725Z,15.90
2018-10-11T23:26:58.823Z,15.90
2018-10-11T23:29:26.944Z,15.90
2018-10-11T23:31:55.053Z,15.80
2018-10-11T23:34:23.141Z,15.80
2018-10-11T23:36:51.253Z,15.80
2018-10-11T23:39:19.378Z,15.90
2018-10-11T23:41:47.477Z,15.90
2018-10-11T23:44:15.596Z,15.90
2018-10-11T23:46:43.746Z,15.90
2018-10-11T23:49:11.818Z,15.90
2018-10-11T23:51:40.082Z,15.90
2018-10-11T23:54:08.515Z,15.80
2018-10-11T23:56:36.604Z,15.70
2018-10-11T23:59:04.718Z,15.70
